Portada
METAR-TAF:

METAR-TAF

Aeroports :

Ghat, Líbia

latitud: 25-08N, longitud: 010-09E, altitud: 699 m

METAR: manca

Hora: 12:20 (10:20 UTC)

Pronòstic

L'informe es va fer fa 29 hores i 20 minuts, a les 05:00 UTC
Pronòstic vàlid del 20 a les 06 UTC al 21 a les 06 UTC
Vent 2 kt amb direcció variable
Visibilitat: 8000 m

TAF: HLGT 200500Z 2006/2106 VRB02KT 8000 NSC

Observacions i pronòstics meteorològics de més de 4000 aeroports (METAR i TAF).

Les estacions disponibles són els punts grocs i vermells al mapa.

Posi el ratolí al punt desitjat per veure el nom de l'estació.

Feu clic per veure les observacions i els pronòstics meteorològics.

Per canviar el mapa: feu clic els botons verds amb una creu de color negre per apropar; al botó verd amb un guió per allunyar la imatge; o en les fletxes verdes per a mapes adjacents.


METAR-TAF: